Terminal Aerodrome Forecast
Issued by NWS Milwaukee/Sullivan, WI

Home | Current Version | Previous Version | Text Only | Print | Product List | Glossary On
Versions: 1 2 3 4 5 6 7 8 9 10 11 12 13 14 15 16 17 18 19 20 21 22 23 24 25 26
000
FTUS43 KMKX 250520
TAFMSN
TAF
KMSN 250520Z 2506/2606 13005KT P6SM FEW010 SCT120 BKN250
     FM251400 16008KT P6SM VCSH SCT015 OVC025
      TEMPO 2516/2520 4SM TSRA BKN015CB
     FM252000 19009KT P6SM VCSH OVC025
     FM252300 23008KT P6SM BKN035
     FM260200 27011KT P6SM BKN040=

USA.gov is the U.S. government's official web portal to all federal, state and local government web resources and services.